Limestone, TN

10:52 PM EDT on July 28, 2016 (GMT -0400)
Cherokee National Forest | | Change Station

Elev 1473 ft 36.15 °N, 82.57 °W | Updated 2 seconds ago

Light Rain
Light Rain Mist
73.2 °F
Feels Like 71 °F
N
1.3
Wind Variable Wind from SSW
Gusts 2.9 mph

Today
High -- | Low -- °F
--% Chance of Precip.
Yesterday
High -- | Low -- °F
Precip. -- in
Pressure 29.97 in
Visibility 4.0 miles
Clouds Few 700 ft
Mostly Cloudy 1600 ft
Overcast 3000 ft
Heat Index 71 °F
Dew Point 70 °F
Humidity 91%
Rainfall 0.56 in
Snow Depth Not available.
6:34 AM 8:38 PM
Waning Crescent, 26% visible
SPECI KTRI 290216Z 35004KT 4SM -RA BR FEW007 BKN016 OVC030 22/21 A2997 RMK AO2 P0009 T02170206 $
Pressure 29.97 in
Visibility 4.0 miles
Clouds Few 700 ft
Mostly Cloudy 1600 ft
Overcast 3000 ft
Heat Index 71 °F
Dew Point 70 °F
Humidity 91%
Rainfall 0.56 in
Snow Depth Not available.
6:34 AM 8:38 PM
Waning Crescent, 26% visible
SPECI KTRI 290216Z 35004KT 4SM -RA BR FEW007 BKN016 OVC030 22/21 A2997 RMK AO2 P0009 T02170206 $

10-Day Weather Forecast

Almanac

Astronomy

Jul. 28, 2016 Rise Set
Actual Time
Civil Twilight
Nautical Twilight
Astronomical Twilight
Moon
Length of Visible Light
Length of Day
Tomorrow will be .
, % of the Moon is Illuminated

Today's Extremes

State Highs State Lows

Community

WunderPhotos

Upload Photos

1,928,274 photos uploaded!

WunderBlog® & News

Nearby

Air Quality

  Air Quality AQ Index Pollutant
Not available.

Snow Depth

Station Depth Elevation

Earthquake Activity

City Distance Mag. Time & Date
Minimum magnitude displayed is 2.5.

Coastal Water Temperatures

Place Temperature

Stations

Nearby Weather Stations

Station Location Temp. Windchill Dew Point Humidity Wind Precip. Elev Updated Type
                   

Watches & Warnings

There are currently no watches in effect.